createdAt,value
2023-03-08T00:01:47.527Z,1.80
2023-03-08T00:04:15.710Z,1.75
2023-03-08T00:06:43.714Z,2.88
2023-03-08T00:09:11.833Z,1.52
2023-03-08T00:11:43.756Z,1.88
2023-03-08T00:14:11.702Z,2.90
2023-03-08T00:16:39.628Z,1.95
2023-03-08T00:19:07.553Z,1.88
2023-03-08T00:21:35.427Z,1.80
2023-03-08T00:24:03.379Z,2.67
2023-03-08T00:26:31.304Z,2.17
2023-03-08T00:29:00.598Z,2.05
2023-03-08T00:31:29.244Z,2.60
2023-03-08T00:33:57.229Z,2.83
2023-03-08T00:36:25.342Z,2.28
2023-03-08T00:38:53.696Z,2.35
2023-03-08T00:41:21.727Z,1.60
2023-03-08T00:43:49.916Z,2.05
2023-03-08T00:46:24.634Z,2.22
2023-03-08T00:48:52.729Z,2.30
2023-03-08T00:51:21.696Z,1.77
2023-03-08T00:53:50.074Z,1.90
2023-03-08T00:56:21.130Z,1.65
2023-03-08T00:58:48.996Z,1.50
2023-03-08T01:01:20.494Z,1.27
2023-03-08T01:03:50.441Z,1.00
2023-03-08T01:06:18.504Z,2.03
2023-03-08T01:08:46.469Z,1.90
2023-03-08T01:11:19.563Z,1.20
2023-03-08T01:13:48.099Z,1.77
2023-03-08T01:16:17.915Z,0.88
2023-03-08T01:18:47.400Z,1.30
2023-03-08T01:21:15.638Z,1.48
2023-03-08T01:23:44.032Z,1.48
2023-03-08T01:26:14.565Z,2.28
2023-03-08T01:28:42.794Z,1.20
2023-03-08T01:31:13.556Z,1.63
2023-03-08T01:33:42.427Z,1.60
2023-03-08T01:36:15.074Z,2.17
2023-03-08T01:38:46.561Z,1.73
2023-03-08T01:41:17.273Z,1.17
2023-03-08T01:43:45.430Z,1.58
2023-03-08T01:46:20.321Z,1.40
2023-03-08T01:48:55.667Z,1.70
2023-03-08T01:51:32.524Z,1.98
2023-03-08T01:54:03.664Z,1.45
2023-03-08T01:56:32.241Z,1.52
2023-03-08T01:59:01.597Z,1.25
2023-03-08T02:01:29.878Z,2.00
2023-03-08T02:03:59.715Z,1.70
2023-03-08T02:06:29.850Z,1.30
2023-03-08T02:08:58.420Z,1.65
2023-03-08T02:11:26.956Z,1.13
2023-03-08T02:13:58.311Z,1.23
2023-03-08T02:16:26.398Z,1.17
2023-03-08T02:18:57.018Z,1.65
2023-03-08T02:21:25.953Z,1.15
2023-03-08T02:23:55.838Z,1.67
2023-03-08T02:26:24.006Z,2.72
2023-03-08T02:28:51.968Z,1.80
2023-03-08T02:31:22.368Z,2.17
2023-03-08T02:33:50.260Z,2.63
2023-03-08T02:36:18.177Z,1.58
2023-03-08T02:38:46.123Z,1.33
2023-03-08T02:41:15.498Z,2.15
2023-03-08T02:43:44.900Z,2.20
2023-03-08T02:46:13.442Z,1.80
2023-03-08T02:48:41.400Z,2.30
2023-03-08T02:51:11.644Z,1.55
2023-03-08T02:53:39.626Z,1.80
2023-03-08T02:56:08.123Z,1.55
2023-03-08T02:58:37.474Z,2.17
2023-03-08T03:01:11.131Z,1.58
2023-03-08T03:03:39.211Z,1.75
2023-03-08T03:06:14.916Z,1.80
2023-03-08T03:08:51.658Z,2.95
2023-03-08T03:11:22.869Z,1.50
2023-03-08T03:14:02.420Z,1.45
2023-03-08T03:16:35.639Z,2.55
2023-03-08T03:19:03.624Z,1.55
2023-03-08T03:21:31.571Z,1.70
2023-03-08T03:23:59.952Z,1.42
2023-03-08T03:26:35.689Z,1.65
2023-03-08T03:29:05.061Z,2.30
2023-03-08T03:31:36.982Z,2.28
2023-03-08T03:34:05.417Z,1.60
2023-03-08T03:36:34.453Z,2.28
2023-03-08T03:39:03.225Z,3.08
2023-03-08T03:41:32.993Z,2.60
2023-03-08T03:44:07.248Z,2.83
2023-03-08T03:46:36.253Z,1.95
2023-03-08T03:49:06.978Z,2.17
2023-03-08T03:51:39.231Z,1.60
2023-03-08T03:54:21.949Z,3.35
2023-03-08T03:56:50.331Z,2.33
2023-03-08T03:59:26.241Z,2.60
2023-03-08T04:01:54.744Z,2.35
2023-03-08T04:04:28.141Z,2.90
2023-03-08T04:06:56.575Z,2.72
2023-03-08T04:09:28.243Z,1.55
2023-03-08T04:12:07.346Z,2.50
2023-03-08T04:14:40.249Z,3.25
2023-03-08T04:17:09.817Z,2.15
2023-03-08T04:19:43.146Z,2.58
2023-03-08T04:22:13.120Z,3.08
2023-03-08T04:24:47.202Z,1.88
2023-03-08T04:27:20.607Z,2.55
2023-03-08T04:29:50.082Z,3.03
2023-03-08T04:32:20.911Z,2.70
2023-03-08T04:34:53.889Z,2.95
2023-03-08T04:37:25.221Z,2.10
2023-03-08T04:39:57.104Z,2.17
2023-03-08T04:42:26.252Z,2.60
2023-03-08T04:44:57.121Z,2.45
2023-03-08T04:47:25.630Z,3.35
2023-03-08T04:49:54.608Z,3.63
2023-03-08T04:52:30.960Z,2.85
2023-03-08T04:54:59.543Z,1.63
2023-03-08T04:57:28.897Z,1.60
2023-03-08T05:00:01.469Z,1.65
2023-03-08T05:02:32.508Z,2.30
2023-03-08T05:05:01.610Z,2.72
2023-03-08T05:07:29.659Z,2.38
2023-03-08T05:09:59.126Z,2.25
2023-03-08T05:12:27.078Z,2.80
2023-03-08T05:15:01.984Z,1.88
2023-03-08T05:17:30.973Z,1.80
2023-03-08T05:19:59.335Z,2.92
2023-03-08T05:22:44.995Z,3.20
2023-03-08T05:25:20.240Z,2.90
2023-03-08T05:27:48.264Z,2.85
2023-03-08T05:30:19.343Z,3.05
2023-03-08T05:32:47.303Z,3.63
2023-03-08T05:35:18.495Z,4.22
2023-03-08T05:37:52.704Z,3.70
2023-03-08T05:40:21.393Z,3.08
2023-03-08T05:42:51.309Z,2.63
2023-03-08T05:45:21.099Z,3.33
2023-03-08T05:47:49.101Z,3.80
2023-03-08T05:50:17.724Z,4.18
2023-03-08T05:52:47.411Z,5.85
2023-03-08T05:55:20.040Z,6.57
2023-03-08T05:57:51.273Z,6.55
2023-03-08T06:00:22.159Z,6.32
2023-03-08T06:02:55.753Z,5.03
2023-03-08T06:05:24.723Z,4.85
2023-03-08T06:07:56.453Z,5.80
2023-03-08T06:10:24.939Z,6.80
2023-03-08T06:12:54.885Z,5.93
2023-03-08T06:15:26.882Z,4.22
2023-03-08T06:17:55.439Z,3.83
2023-03-08T06:20:26.847Z,3.97
2023-03-08T06:22:56.166Z,3.20
2023-03-08T06:25:25.046Z,4.15
2023-03-08T06:27:53.770Z,3.72
2023-03-08T06:30:29.227Z,4.25
2023-03-08T06:32:58.508Z,4.00
2023-03-08T06:35:27.108Z,3.63
2023-03-08T06:37:59.416Z,4.70
2023-03-08T06:40:29.624Z,4.00
2023-03-08T06:42:58.629Z,2.80
2023-03-08T06:45:30.249Z,3.30
2023-03-08T06:47:59.759Z,3.80
2023-03-08T06:50:29.564Z,2.90
2023-03-08T06:52:57.628Z,2.63
2023-03-08T06:55:40.177Z,2.85
2023-03-08T06:58:08.604Z,3.90
2023-03-08T07:00:37.948Z,3.53
2023-03-08T07:03:06.481Z,3.08
2023-03-08T07:05:35.139Z,2.30
2023-03-08T07:08:03.797Z,2.65
2023-03-08T07:10:31.930Z,3.78
2023-03-08T07:13:00.183Z,5.35
2023-03-08T07:15:28.254Z,4.40
2023-03-08T07:17:58.165Z,2.95
2023-03-08T07:20:28.461Z,3.58
2023-03-08T07:22:57.043Z,4.18
2023-03-08T07:25:24.981Z,2.90
2023-03-08T07:27:52.952Z,3.58
2023-03-08T07:30:21.407Z,4.07
2023-03-08T07:32:49.516Z,2.50
2023-03-08T07:35:19.093Z,2.60
2023-03-08T07:37:48.163Z,3.72
2023-03-08T07:40:17.618Z,4.32
2023-03-08T07:42:46.159Z,4.80
2023-03-08T07:45:43.651Z,3.08
2023-03-08T07:48:14.402Z,2.70
2023-03-08T07:50:43.866Z,2.30
2023-03-08T07:53:11.747Z,2.20
2023-03-08T07:55:39.776Z,3.25
2023-03-08T07:58:07.689Z,3.50
2023-03-08T08:00:35.710Z,2.97
2023-03-08T08:03:03.966Z,3.05
2023-03-08T08:05:32.143Z,2.53
2023-03-08T08:08:01.493Z,1.98
2023-03-08T08:10:32.492Z,2.47
2023-03-08T08:13:00.554Z,2.33
2023-03-08T08:15:30.810Z,2.65
2023-03-08T08:17:58.884Z,3.03
2023-03-08T08:20:28.259Z,3.03
2023-03-08T08:22:56.566Z,2.63
2023-03-08T08:25:25.937Z,2.83
2023-03-08T08:27:54.307Z,2.92
2023-03-08T08:30:22.423Z,2.50
2023-03-08T08:32:50.569Z,2.83
2023-03-08T08:35:18.670Z,3.78
2023-03-08T08:37:50.219Z,2.90
2023-03-08T08:40:18.402Z,2.63
2023-03-08T08:42:47.651Z,3.60
2023-03-08T08:45:15.561Z,5.88
2023-03-08T08:47:45.300Z,2.70
2023-03-08T08:50:14.224Z,3.15
2023-03-08T08:52:42.213Z,2.95
2023-03-08T08:55:10.800Z,3.33
2023-03-08T08:57:38.673Z,3.28
2023-03-08T09:00:09.961Z,4.70
2023-03-08T09:02:38.065Z,2.30
2023-03-08T09:05:06.597Z,3.08
2023-03-08T09:07:34.605Z,2.80
2023-03-08T09:10:02.572Z,2.63
2023-03-08T09:12:31.229Z,3.53
2023-03-08T09:14:59.853Z,3.05
2023-03-08T09:17:29.360Z,2.92
2023-03-08T09:19:57.365Z,2.90
2023-03-08T09:22:25.335Z,1.95
2023-03-08T09:24:53.372Z,2.70
2023-03-08T09:27:23.273Z,1.95
2023-03-08T09:29:51.187Z,1.98
2023-03-08T09:32:19.166Z,2.25
2023-03-08T09:34:48.549Z,2.35
2023-03-08T09:37:16.500Z,2.38
2023-03-08T09:39:44.503Z,4.00
2023-03-08T09:42:20.627Z,2.40
2023-03-08T09:45:15.924Z,2.30
2023-03-08T09:47:48.585Z,2.90
2023-03-08T09:50:28.894Z,2.70
2023-03-08T09:53:01.348Z,2.45
2023-03-08T09:55:31.052Z,4.28
2023-03-08T09:58:07.470Z,1.88
2023-03-08T10:00:39.430Z,4.75
2023-03-08T10:03:34.442Z,3.10
2023-03-08T10:06:14.373Z,2.20
2023-03-08T10:08:50.559Z,2.75
2023-03-08T10:11:23.060Z,4.30
2023-03-08T10:13:54.242Z,4.85
2023-03-08T10:16:25.893Z,2.67
2023-03-08T10:18:57.661Z,5.45
2023-03-08T10:21:28.986Z,2.55
2023-03-08T10:24:01.487Z,3.88
2023-03-08T10:26:30.297Z,4.00
2023-03-08T10:28:59.764Z,3.28
2023-03-08T10:31:29.772Z,3.38
2023-03-08T10:34:04.671Z,3.25
2023-03-08T10:36:34.031Z,3.83
2023-03-08T10:39:10.035Z,3.10
2023-03-08T10:41:42.336Z,4.32
2023-03-08T10:44:15.498Z,2.80
2023-03-08T10:46:50.882Z,3.28
2023-03-08T10:49:20.520Z,2.42
2023-03-08T10:52:01.108Z,2.55
2023-03-08T10:54:30.067Z,4.22
2023-03-08T10:57:00.748Z,2.50
2023-03-08T10:59:32.976Z,3.30
2023-03-08T11:02:03.230Z,3.25
2023-03-08T11:04:32.648Z,2.72
2023-03-08T11:07:11.453Z,3.30
2023-03-08T11:09:39.465Z,4.20
2023-03-08T11:12:07.790Z,3.05
2023-03-08T11:14:36.079Z,3.70
2023-03-08T11:17:18.266Z,2.88
2023-03-08T11:20:11.478Z,3.88
2023-03-08T11:23:04.997Z,3.42
2023-03-08T11:25:43.181Z,3.22
2023-03-08T11:28:48.677Z,4.68
2023-03-08T11:31:29.827Z,3.70
2023-03-08T11:34:17.806Z,2.88
2023-03-08T11:36:51.720Z,3.38
2023-03-08T11:39:26.780Z,3.53
2023-03-08T11:42:01.349Z,3.95
2023-03-08T11:44:50.096Z,1.80
2023-03-08T11:47:50.499Z,2.80
2023-03-08T11:50:23.989Z,3.47
2023-03-08T11:53:04.066Z,3.03
2023-03-08T11:55:47.088Z,2.70
2023-03-08T11:58:22.368Z,3.15
2023-03-08T12:00:52.900Z,3.22
2023-03-08T12:03:24.432Z,3.25
2023-03-08T12:05:56.657Z,3.35
2023-03-08T12:08:28.610Z,2.10
2023-03-08T12:11:01.801Z,3.13
2023-03-08T12:13:34.585Z,1.98
2023-03-08T12:16:10.073Z,2.92
2023-03-08T12:18:44.356Z,1.70
2023-03-08T12:21:29.410Z,2.90
2023-03-08T12:24:07.173Z,2.80
2023-03-08T12:26:40.986Z,3.30
2023-03-08T12:29:17.360Z,3.03
2023-03-08T12:31:47.731Z,2.60
2023-03-08T12:34:28.879Z,2.92
2023-03-08T12:36:56.994Z,4.65
2023-03-08T12:39:28.942Z,3.63
2023-03-08T12:42:04.111Z,4.10
2023-03-08T12:44:32.584Z,3.78
2023-03-08T12:47:18.530Z,2.28
2023-03-08T12:49:52.315Z,3.42
2023-03-08T12:52:31.920Z,3.40
2023-03-08T12:55:02.518Z,2.40
2023-03-08T12:57:38.040Z,3.22
2023-03-08T13:00:24.531Z,4.80
2023-03-08T13:03:04.347Z,2.50
2023-03-08T13:05:34.885Z,4.78
2023-03-08T13:08:23.713Z,2.58
2023-03-08T13:11:01.813Z,3.20
2023-03-08T13:13:43.685Z,2.38
2023-03-08T13:16:33.633Z,2.72
2023-03-08T13:19:22.134Z,2.70
2023-03-08T13:21:57.878Z,3.50
2023-03-08T13:24:36.507Z,3.95
2023-03-08T13:27:33.878Z,4.65
2023-03-08T13:30:22.143Z,3.35
2023-03-08T13:32:51.118Z,4.32
2023-03-08T13:35:20.143Z,3.53
2023-03-08T13:37:54.871Z,2.60
2023-03-08T13:40:23.765Z,3.90
2023-03-08T13:42:55.777Z,3.03
2023-03-08T13:45:25.718Z,3.33
2023-03-08T13:47:55.253Z,3.30
2023-03-08T13:50:29.617Z,3.80
2023-03-08T13:52:57.765Z,3.72
2023-03-08T13:55:30.950Z,3.70
2023-03-08T13:57:59.950Z,3.95
2023-03-08T14:00:32.469Z,3.55
2023-03-08T14:03:01.292Z,2.33
2023-03-08T14:05:31.522Z,1.70
2023-03-08T14:08:02.909Z,2.60
2023-03-08T14:10:38.665Z,3.15
2023-03-08T14:13:08.589Z,3.50
2023-03-08T14:15:40.359Z,3.38
2023-03-08T14:18:09.970Z,2.85
2023-03-08T14:20:38.127Z,2.55
2023-03-08T14:23:06.359Z,2.80
2023-03-08T14:25:34.352Z,3.72
2023-03-08T14:28:02.328Z,5.07
2023-03-08T14:30:32.261Z,2.10
2023-03-08T14:33:08.042Z,2.15
2023-03-08T14:35:38.350Z,3.50
2023-03-08T14:38:15.211Z,3.45
2023-03-08T14:40:49.322Z,2.53
2023-03-08T14:43:19.964Z,2.35
2023-03-08T14:45:54.585Z,4.13
2023-03-08T14:48:27.019Z,3.88
2023-03-08T14:50:58.314Z,3.05
2023-03-08T14:53:30.243Z,2.85
2023-03-08T14:55:58.748Z,2.80
2023-03-08T14:58:29.882Z,2.22
2023-03-08T15:01:01.950Z,1.85
2023-03-08T15:03:32.659Z,2.90
2023-03-08T15:06:06.218Z,1.65
2023-03-08T15:08:34.345Z,3.13
2023-03-08T15:11:02.296Z,2.97
2023-03-08T15:13:30.313Z,2.25
2023-03-08T15:15:58.285Z,2.10
2023-03-08T15:18:26.204Z,1.77
2023-03-08T15:20:55.637Z,1.88
2023-03-08T15:23:26.824Z,2.60
2023-03-08T15:25:57.166Z,1.77
2023-03-08T15:28:25.161Z,4.10
2023-03-08T15:30:54.937Z,3.20
2023-03-08T15:33:23.601Z,2.90
2023-03-08T15:35:55.030Z,2.35
2023-03-08T15:38:25.474Z,3.15
2023-03-08T15:40:53.426Z,2.13
2023-03-08T15:43:21.425Z,1.85
2023-03-08T15:45:49.366Z,2.53
2023-03-08T15:48:19.855Z,1.35
2023-03-08T15:50:49.440Z,1.60
2023-03-08T15:53:29.637Z,2.38
2023-03-08T15:56:07.304Z,1.60
2023-03-08T15:58:35.339Z,2.30
2023-03-08T16:01:03.267Z,3.05
2023-03-08T16:03:31.639Z,3.22
2023-03-08T16:05:59.938Z,3.20
2023-03-08T16:08:28.598Z,2.20
2023-03-08T16:11:02.263Z,2.67
2023-03-08T16:13:31.627Z,2.33
2023-03-08T16:16:00.550Z,2.40
2023-03-08T16:18:29.858Z,3.13
2023-03-08T16:20:58.498Z,3.33
2023-03-08T16:23:26.920Z,2.03
2023-03-08T16:26:14.265Z,2.78
2023-03-08T16:28:45.981Z,2.25
2023-03-08T16:31:14.444Z,1.75
2023-03-08T16:33:42.533Z,2.97
2023-03-08T16:36:11.657Z,2.70
2023-03-08T16:38:39.867Z,2.35
2023-03-08T16:41:15.661Z,2.25
2023-03-08T16:43:49.095Z,4.38
2023-03-08T16:46:26.992Z,4.07
2023-03-08T16:48:59.552Z,3.15
2023-03-08T16:51:30.444Z,3.90
2023-03-08T16:53:58.490Z,3.60
2023-03-08T16:56:28.469Z,4.40
2023-03-08T16:58:59.940Z,5.78
2023-03-08T17:01:28.688Z,6.05
2023-03-08T17:03:59.346Z,3.83
2023-03-08T17:06:29.388Z,4.32
2023-03-08T17:09:00.363Z,4.68
2023-03-08T17:11:35.740Z,3.85
2023-03-08T17:14:09.273Z,3.97
2023-03-08T17:16:38.067Z,3.72
2023-03-08T17:19:08.404Z,3.42
2023-03-08T17:21:38.203Z,2.40
2023-03-08T17:24:08.254Z,3.67
2023-03-08T17:26:37.623Z,2.85
2023-03-08T17:29:07.104Z,2.88
2023-03-08T17:31:35.111Z,2.85
2023-03-08T17:34:06.290Z,6.72
2023-03-08T17:36:34.396Z,5.35
2023-03-08T17:39:02.393Z,5.45
2023-03-08T17:41:32.396Z,6.07
2023-03-08T17:44:00.296Z,8.68
2023-03-08T17:46:30.107Z,7.57
2023-03-08T17:48:58.144Z,7.55
2023-03-08T17:51:29.041Z,6.35
2023-03-08T17:53:57.990Z,7.45
2023-03-08T17:56:29.457Z,7.40
2023-03-08T17:58:58.480Z,5.75
2023-03-08T18:01:30.442Z,7.20
2023-03-08T18:03:58.886Z,6.18
2023-03-08T18:06:29.395Z,6.82
2023-03-08T18:08:57.656Z,6.75
2023-03-08T18:11:26.311Z,4.75
2023-03-08T18:13:54.556Z,6.90
2023-03-08T18:16:23.385Z,5.90
2023-03-08T18:18:52.713Z,6.75
2023-03-08T18:21:21.923Z,5.40
2023-03-08T18:23:49.934Z,6.55
2023-03-08T18:26:18.636Z,6.88
2023-03-08T18:28:46.743Z,6.43
2023-03-08T18:31:16.840Z,9.85
2023-03-08T18:33:46.047Z,9.55
2023-03-08T18:36:15.396Z,7.95
2023-03-08T18:38:43.810Z,6.40
2023-03-08T18:41:13.232Z,6.53
2023-03-08T18:43:41.433Z,6.95
2023-03-08T18:46:11.922Z,6.10
2023-03-08T18:48:40.670Z,7.72
2023-03-08T18:51:11.388Z,4.57
2023-03-08T18:53:40.618Z,6.47
2023-03-08T18:56:08.935Z,7.13
2023-03-08T18:58:36.963Z,6.97
2023-03-08T19:01:11.867Z,6.55
2023-03-08T19:03:39.841Z,7.00
2023-03-08T19:06:10.508Z,5.72
2023-03-08T19:08:42.472Z,4.85
2023-03-08T19:11:14.651Z,4.72
2023-03-08T19:13:43.206Z,5.40
2023-03-08T19:16:22.202Z,4.57
2023-03-08T19:18:53.148Z,5.68
2023-03-08T19:21:23.323Z,5.82
2023-03-08T19:23:55.480Z,4.82
2023-03-08T19:26:41.308Z,6.22
2023-03-08T19:29:16.436Z,4.47
2023-03-08T19:31:52.538Z,5.80
2023-03-08T19:34:21.714Z,3.38
2023-03-08T19:36:50.236Z,4.63
2023-03-08T19:39:22.216Z,4.97
2023-03-08T19:41:51.065Z,4.85
2023-03-08T19:44:22.205Z,5.15
2023-03-08T19:46:50.702Z,5.13
2023-03-08T19:49:20.678Z,4.00
2023-03-08T19:51:49.631Z,5.53
2023-03-08T19:54:21.236Z,5.60
2023-03-08T19:56:49.524Z,7.47
2023-03-08T19:59:17.984Z,6.10
2023-03-08T20:01:46.418Z,6.55
2023-03-08T20:04:14.352Z,6.43
2023-03-08T20:06:46.678Z,4.88
2023-03-08T20:09:32.249Z,5.82
2023-03-08T20:12:00.264Z,4.63
2023-03-08T20:14:31.010Z,4.88
2023-03-08T20:17:01.304Z,4.25
2023-03-08T20:19:31.606Z,5.65
2023-03-08T20:22:00.071Z,9.75
2023-03-08T20:24:29.547Z,7.95
2023-03-08T20:26:59.079Z,6.38
2023-03-08T20:29:27.059Z,9.30
2023-03-08T20:31:58.042Z,6.90
2023-03-08T20:34:38.410Z,7.10
2023-03-08T20:37:06.469Z,7.15
2023-03-08T20:39:37.144Z,4.93
2023-03-08T20:42:05.326Z,6.43
2023-03-08T20:44:33.229Z,6.85
2023-03-08T20:49:44.178Z,10.93
2023-03-08T20:52:12.164Z,9.98
2023-03-08T20:54:42.303Z,10.02
2023-03-08T20:57:10.382Z,6.30
2023-03-08T20:59:38.643Z,9.38
2023-03-08T21:02:12.092Z,7.00
2023-03-08T21:04:40.116Z,8.18
2023-03-08T21:07:10.180Z,6.10
2023-03-08T21:09:38.098Z,8.77
2023-03-08T21:12:07.864Z,7.47
2023-03-08T21:14:36.160Z,4.30
2023-03-08T21:17:04.111Z,7.20
2023-03-08T21:19:33.463Z,5.45
2023-03-08T21:22:03.252Z,5.68
2023-03-08T21:24:32.643Z,4.28
2023-03-08T21:27:00.643Z,6.80
2023-03-08T21:29:30.087Z,6.30
2023-03-08T21:31:59.410Z,5.38
2023-03-08T21:34:27.418Z,4.28
2023-03-08T21:36:55.369Z,5.53
2023-03-08T21:39:26.464Z,5.57
2023-03-08T21:41:56.928Z,5.78
2023-03-08T21:44:24.945Z,5.50
2023-03-08T21:46:55.466Z,5.32
2023-03-08T21:49:25.790Z,4.60
2023-03-08T21:51:55.438Z,9.90
2023-03-08T21:54:25.091Z,10.27
2023-03-08T21:56:53.421Z,10.82
2023-03-08T21:59:26.903Z,10.43
2023-03-08T22:01:58.725Z,8.85
2023-03-08T22:04:27.832Z,8.45
2023-03-08T22:06:56.297Z,9.88
2023-03-08T22:09:26.777Z,7.65
2023-03-08T22:11:56.855Z,9.35
2023-03-08T22:14:24.885Z,9.70
2023-03-08T22:16:56.436Z,9.15
2023-03-08T22:19:25.788Z,7.68
2023-03-08T22:21:53.850Z,6.65
2023-03-08T22:24:23.508Z,8.38
2023-03-08T22:26:56.927Z,7.95
2023-03-08T22:29:24.997Z,6.53
2023-03-08T22:31:53.072Z,6.60
2023-03-08T22:34:20.958Z,6.25
2023-03-08T22:36:50.277Z,5.93
2023-03-08T22:39:18.614Z,7.22
2023-03-08T22:41:46.553Z,7.30
2023-03-08T22:44:15.330Z,6.72
2023-03-08T22:46:43.389Z,6.85
2023-03-08T22:49:12.465Z,7.90
2023-03-08T22:51:41.489Z,6.88
2023-03-08T22:54:16.219Z,6.75
2023-03-08T22:56:44.222Z,5.78
2023-03-08T22:59:12.250Z,6.22
2023-03-08T23:01:40.223Z,5.78
2023-03-08T23:04:09.618Z,6.00
2023-03-08T23:06:37.613Z,5.18
2023-03-08T23:09:08.091Z,5.28
2023-03-08T23:11:38.186Z,5.00
2023-03-08T23:14:07.383Z,6.75
2023-03-08T23:16:36.843Z,4.95
2023-03-08T23:19:06.368Z,5.88
2023-03-08T23:21:35.770Z,6.68
2023-03-08T23:24:03.980Z,4.10
2023-03-08T23:26:32.711Z,6.50
2023-03-08T23:29:04.196Z,5.60
2023-03-08T23:31:35.033Z,5.70
2023-03-08T23:34:03.856Z,5.78
2023-03-08T23:36:33.501Z,4.63
2023-03-08T23:39:03.677Z,4.70
2023-03-08T23:41:34.540Z,4.28
2023-03-08T23:44:04.420Z,5.07
2023-03-08T23:46:33.126Z,6.93
2023-03-08T23:49:01.813Z,3.78
2023-03-08T23:51:31.395Z,4.55
2023-03-08T23:54:03.346Z,4.78
2023-03-08T23:56:37.686Z,3.85
2023-03-08T23:59:10.811Z,4.90
